Time;durP1;ratioP1;P1;durP2;ratioP2;P2;SDS_P1;SDS_P2;PMS_P1;PMS_P2;Temp;Humidity;BMP_temperature;BMP_pressure;BME280_temperature;BME280_humidity;BME280_pressure;Samples;Min_cycle;Max_cycle;Signal;HPM_P1;HPM_P2
2021/12/21 00:00:15;;;;;;;1.70;1.60;;;0.80;99.90;;;;;;4991312;28;20197;-64
2021/12/21 00:02:43;;;;;;;1.83;1.73;;;0.70;99.90;;;;;;4983847;28;20206;-63
2021/12/21 00:05:17;;;;;;;1.70;1.60;;;0.70;99.90;;;;;;5007523;28;20290;-64
2021/12/21 00:07:44;;;;;;;1.70;1.60;;;0.60;99.90;;;;;;4985150;28;20221;-63
2021/12/21 00:10:12;;;;;;;1.70;1.60;;;0.50;99.90;;;;;;4989852;28;20214;-62
2021/12/21 00:12:47;;;;;;;1.60;1.50;;;0.50;99.90;;;;;;4987658;28;20257;-63
2021/12/21 00:15:22;;;;;;;1.87;1.77;;;0.50;99.90;;;;;;4979872;28;20226;-62
2021/12/21 00:17:55;;;;;;;1.70;1.60;;;0.40;99.90;;;;;;4981163;28;20194;-62
2021/12/21 00:20:35;;;;;;;1.80;1.70;;;0.30;99.90;;;;;;4978022;28;20578;-64
2021/12/21 00:23:29;;;;;;;1.90;1.80;;;0.30;99.90;;;;;;4994588;28;20228;-63
2021/12/21 00:25:56;;;;;;;1.47;1.37;;;0.30;99.90;;;;;;5039516;22;20224;-67
2021/12/21 00:28:24;;;;;;;1.67;1.57;;;0.40;99.90;;;;;;5038256;28;20224;-66
2021/12/21 00:30:53;;;;;;;1.50;1.40;;;0.40;99.90;;;;;;5037895;28;20207;-68
2021/12/21 00:33:19;;;;;;;1.63;1.53;;;0.40;99.90;;;;;;5035068;28;20263;-68
2021/12/21 00:35:47;;;;;;;1.20;1.20;;;0.30;99.90;;;;;;5037717;28;20702;-67
2021/12/21 00:38:14;;;;;;;1.30;1.30;;;0.40;99.90;;;;;;5045607;28;20232;-64
2021/12/21 00:40:41;;;;;;;1.60;1.50;;;0.30;99.90;;;;;;5055253;28;20193;-67
2021/12/21 00:43:08;;;;;;;1.30;1.30;;;0.30;99.90;;;;;;5050418;28;20208;-67
2021/12/21 00:45:35;;;;;;;1.40;1.40;;;0.30;99.90;;;;;;5047369;28;20295;-67
2021/12/21 00:48:03;;;;;;;1.33;1.30;;;0.30;99.90;;;;;;5036763;28;20300;-66
2021/12/21 00:50:30;;;;;;;1.57;1.47;;;0.30;99.90;;;;;;5035646;28;20634;-66
2021/12/21 00:52:57;;;;;;;1.50;1.40;;;0.30;99.90;;;;;;5034991;28;20267;-67
2021/12/21 00:55:25;;;;;;;1.38;1.30;;;0.30;99.90;;;;;;5035210;28;20256;-66
2021/12/21 00:57:52;;;;;;;1.67;1.57;;;0.30;99.90;;;;;;5034437;28;20240;-68
2021/12/21 01:00:21;;;;;;;1.33;1.33;;;0.20;99.90;;;;;;5034907;28;20193;-67
2021/12/21 01:02:49;;;;;;;1.50;1.40;;;0.30;99.90;;;;;;5035383;28;20201;-66
2021/12/21 01:05:24;;;;;;;1.57;1.47;;;0.30;99.90;;;;;;5034750;28;20263;-68
2021/12/21 01:07:54;;;;;;;1.60;1.50;;;0.30;99.90;;;;;;5034621;28;20204;-68
2021/12/21 01:13:24;;;;;;;1.50;1.40;;;0.30;99.90;;;;;;5042499;28;20236;-67
2021/12/21 01:16:12;;;;;;;1.38;1.33;;;0.30;99.90;;;;;;5034115;28;20706;-64
2021/12/21 01:18:52;;;;;;;1.23;1.23;;;0.30;99.90;;;;;;5034110;28;20690;-67
2021/12/21 01:21:25;;;;;;;1.40;1.30;;;0.20;99.90;;;;;;5035025;28;20216;-67
2021/12/21 01:24:11;;;;;;;1.60;1.50;;;0.20;99.90;;;;;;5033718;28;20209;-67
2021/12/21 01:26:50;;;;;;;2.00;1.90;;;0.10;99.90;;;;;;5033366;28;20710;-68
2021/12/21 01:29:25;;;;;;;1.77;1.67;;;0.10;99.90;;;;;;5034078;28;20351;-68
2021/12/21 01:32:00;;;;;;;1.73;1.63;;;0.00;99.90;;;;;;5034477;28;20692;-68
2021/12/21 01:34:39;;;;;;;1.73;1.63;;;0.00;99.90;;;;;;5033813;28;20200;-67
2021/12/21 01:37:15;;;;;;;2.07;1.97;;;-0.10;99.90;;;;;;5033691;28;20302;-68
2021/12/21 01:42:48;;;;;;;2.90;2.70;;;-0.10;99.90;;;;;;5033709;28;20200;-67
2021/12/21 01:50:49;;;;;;;2.40;2.30;;;-0.10;99.90;;;;;;5035522;28;20203;-68
2021/12/21 01:53:18;;;;;;;2.17;2.07;;;-0.10;99.90;;;;;;5034395;28;20229;-68
2021/12/21 01:55:45;;;;;;;2.23;2.13;;;-0.10;99.90;;;;;;5038099;28;20291;-69
2021/12/21 01:58:12;;;;;;;2.00;1.90;;;-0.10;99.90;;;;;;5051572;28;20204;-66
2021/12/21 02:00:40;;;;;;;2.35;2.25;;;-0.10;99.90;;;;;;5042684;28;20215;-66
2021/12/21 02:03:07;;;;;;;2.28;2.17;;;-0.10;99.90;;;;;;5032869;28;20207;-67
2021/12/21 02:05:34;;;;;;;2.53;2.42;;;-0.10;99.90;;;;;;5031646;28;20235;-67
2021/12/21 02:08:01;;;;;;;2.40;2.30;;;-0.10;99.90;;;;;;5032886;28;20243;-68
2021/12/21 02:10:30;;;;;;;2.30;2.20;;;-0.10;99.90;;;;;;5033111;28;20288;-68
2021/12/21 02:12:57;;;;;;;1.90;1.77;;;-0.10;99.90;;;;;;5032957;28;20710;-67
2021/12/21 02:15:25;;;;;;;2.00;1.90;;;-0.10;99.90;;;;;;5032702;28;20288;-67
2021/12/21 02:18:29;;;;;;;1.80;1.70;;;0.00;99.90;;;;;;5033418;28;20205;-66
2021/12/21 02:21:01;;;;;;;1.70;1.60;;;-0.20;99.90;;;;;;5032700;28;20287;-68
2021/12/21 02:23:33;;;;;;;1.73;1.63;;;-0.20;99.90;;;;;;5033695;28;20655;-67
2021/12/21 02:26:18;;;;;;;1.70;1.60;;;-0.10;99.90;;;;;;5032151;28;20229;-67
2021/12/21 02:31:29;;;;;;;1.60;1.50;;;-0.10;99.90;;;;;;5035698;28;20234;-68
2021/12/21 02:33:56;;;;;;;1.58;1.48;;;-0.10;99.90;;;;;;5034170;28;20247;-68
2021/12/21 02:36:25;;;;;;;1.70;1.60;;;-0.10;99.90;;;;;;5034283;28;20260;-68
2021/12/21 02:38:52;;;;;;;1.67;1.40;;;-0.10;99.90;;;;;;5033487;28;20232;-68
2021/12/21 02:41:19;;;;;;;1.70;1.60;;;-0.20;99.90;;;;;;5032809;28;20219;-67
2021/12/21 02:43:46;;;;;;;1.40;1.40;;;-0.20;99.90;;;;;;5032531;28;20326;-67
2021/12/21 02:46:12;;;;;;;1.60;1.50;;;-0.20;99.90;;;;;;5032014;28;20728;-66
2021/12/21 02:48:39;;;;;;;1.37;1.30;;;-0.20;99.90;;;;;;5035677;28;20687;-66
2021/12/21 02:51:06;;;;;;;1.50;1.50;;;-0.20;99.90;;;;;;5034368;28;20204;-68
2021/12/21 02:53:34;;;;;;;1.60;1.50;;;-0.20;99.90;;;;;;5035555;28;20248;-69
2021/12/21 02:56:01;;;;;;;2.00;1.90;;;-0.20;99.90;;;;;;5035008;28;20311;-66
2021/12/21 02:58:28;;;;;;;1.70;1.60;;;-0.20;99.90;;;;;;5032674;28;20308;-67
2021/12/21 03:00:55;;;;;;;2.20;2.00;;;-0.20;99.90;;;;;;5032358;28;20204;-68
2021/12/21 03:03:22;;;;;;;1.83;1.73;;;-0.20;99.90;;;;;;5032445;28;20288;-67
2021/12/21 03:05:53;;;;;;;1.80;1.70;;;-0.30;99.90;;;;;;5032310;28;20239;-68
2021/12/21 03:08:23;;;;;;;1.80;1.70;;;-0.30;99.90;;;;;;5032564;28;20222;-65
2021/12/21 03:11:09;;;;;;;1.70;1.60;;;-0.30;99.90;;;;;;5032385;28;20258;-66
2021/12/21 03:14:03;;;;;;;1.80;1.70;;;-0.30;99.90;;;;;;5032547;28;20208;-68
2021/12/21 03:16:31;;;;;;;1.40;1.40;;;-0.30;99.90;;;;;;5031252;28;20220;-65
2021/12/21 03:18:59;;;;;;;1.65;1.55;;;-0.20;99.90;;;;;;5031654;28;20212;-67
2021/12/21 03:21:26;;;;;;;1.50;1.40;;;-0.40;99.90;;;;;;5032113;28;20212;-68
2021/12/21 03:23:53;;;;;;;1.27;1.27;;;-0.40;99.90;;;;;;5031738;28;20633;-68
2021/12/21 03:26:21;;;;;;;1.33;1.23;;;-0.40;99.90;;;;;;5032260;28;20264;-67
2021/12/21 03:28:49;;;;;;;1.40;1.30;;;-0.40;99.90;;;;;;5034054;28;20726;-67
2021/12/21 03:31:15;;;;;;;1.50;1.40;;;-0.30;99.90;;;;;;5034024;28;20280;-68
2021/12/21 03:33:43;;;;;;;1.23;1.23;;;-0.40;99.90;;;;;;5032051;28;20654;-67
2021/12/21 03:36:10;;;;;;;1.00;1.00;;;-0.40;99.90;;;;;;5032316;28;20232;-68
2021/12/21 03:38:39;;;;;;;1.37;1.37;;;-0.30;99.90;;;;;;5042192;28;20652;-67
2021/12/21 03:41:10;;;;;;;1.37;1.30;;;-0.30;99.90;;;;;;5047544;28;20659;-68
2021/12/21 03:43:39;;;;;;;1.40;1.30;;;-0.30;99.90;;;;;;5046966;28;20189;-66
2021/12/21 03:46:09;;;;;;;1.23;1.23;;;-0.30;99.90;;;;;;5048038;28;20737;-66
2021/12/21 03:48:38;;;;;;;1.03;1.03;;;-0.40;99.90;;;;;;5045509;28;20199;-68
2021/12/21 03:51:05;;;;;;;1.40;1.30;;;-0.30;99.90;;;;;;5035511;28;20208;-68
2021/12/21 03:53:32;;;;;;;1.00;1.00;;;-0.30;99.90;;;;;;5035254;28;20229;-67
2021/12/21 03:56:21;;;;;;;1.17;1.17;;;-0.30;99.90;;;;;;5034590;28;20220;-67
2021/12/21 03:58:49;;;;;;;1.20;1.20;;;-0.20;99.90;;;;;;5035181;28;20225;-67
2021/12/21 04:01:16;;;;;;;1.20;1.20;;;-0.20;99.90;;;;;;5035365;28;20645;-66
2021/12/21 04:03:43;;;;;;;1.10;1.10;;;-0.30;99.90;;;;;;5034929;28;20288;-65
2021/12/21 04:06:10;;;;;;;0.90;0.90;;;-0.40;99.90;;;;;;5035450;28;20627;-67
2021/12/21 04:08:37;;;;;;;1.00;1.00;;;-0.50;99.90;;;;;;5036612;28;20236;-67
2021/12/21 04:11:05;;;;;;;1.23;1.20;;;-0.50;99.90;;;;;;5038426;28;20207;-65
2021/12/21 04:13:32;;;;;;;1.20;1.13;;;-0.60;99.90;;;;;;5036348;28;20303;-68
2021/12/21 04:16:03;;;;;;;1.13;1.13;;;-0.60;99.90;;;;;;5035440;28;20232;-68
2021/12/21 04:18:34;;;;;;;1.00;1.00;;;-0.60;99.90;;;;;;5034996;28;20188;-66
2021/12/21 04:21:02;;;;;;;1.30;1.20;;;-0.60;99.90;;;;;;5034828;28;20189;-67
2021/12/21 04:23:29;;;;;;;0.90;0.90;;;-0.60;99.90;;;;;;5034758;28;20287;-67
2021/12/21 04:25:56;;;;;;;1.10;1.10;;;-0.70;99.90;;;;;;5034106;28;20327;-65
2021/12/21 04:28:23;;;;;;;1.27;1.23;;;-0.80;99.90;;;;;;5034639;28;20730;-68
2021/12/21 04:30:50;;;;;;;1.13;1.10;;;-0.70;99.90;;;;;;5034420;28;20211;-67
2021/12/21 04:33:19;;;;;;;1.00;1.00;;;-0.70;99.90;;;;;;5034229;28;20303;-68
2021/12/21 04:35:46;;;;;;;1.00;1.00;;;-0.70;99.90;;;;;;5034289;28;20315;-68
2021/12/21 04:38:20;;;;;;;1.00;1.00;;;-0.70;99.90;;;;;;5034088;28;20312;-66
2021/12/21 04:40:50;;;;;;;1.20;1.20;;;-0.80;99.90;;;;;;5034586;28;20223;-69
2021/12/21 04:43:17;;;;;;;0.90;0.90;;;-0.80;99.90;;;;;;5034764;28;20211;-68
2021/12/21 04:45:44;;;;;;;1.10;1.10;;;-0.80;99.90;;;;;;5034664;28;21034;-68
2021/12/21 04:48:11;;;;;;;1.10;1.10;;;-0.80;99.90;;;;;;5034808;28;20205;-67
2021/12/21 04:50:40;;;;;;;0.90;0.90;;;-0.90;99.90;;;;;;5035229;28;20600;-66
2021/12/21 04:53:07;;;;;;;1.30;1.20;;;-0.90;99.90;;;;;;5035521;28;20260;-66
2021/12/21 04:55:34;;;;;;;1.00;1.00;;;-0.80;99.90;;;;;;5035324;28;20227;-67
2021/12/21 04:58:00;;;;;;;1.20;1.20;;;-0.90;99.90;;;;;;5034606;28;20239;-69
2021/12/21 05:00:27;;;;;;;1.40;1.30;;;-0.90;99.90;;;;;;5036357;28;20244;-68
2021/12/21 05:02:54;;;;;;;1.33;1.23;;;-0.90;99.90;;;;;;5035256;28;20725;-68
2021/12/21 05:05:21;;;;;;;1.40;1.30;;;-0.90;99.90;;;;;;5036437;28;20312;-67
2021/12/21 05:07:54;;;;;;;1.10;1.10;;;-0.70;99.90;;;;;;5034991;28;20291;-67
2021/12/21 05:10:21;;;;;;;1.67;1.57;;;-0.60;99.90;;;;;;5035868;28;20251;-66
2021/12/21 05:12:48;;;;;;;1.40;1.30;;;-0.70;99.90;;;;;;5036013;28;20266;-69
2021/12/21 05:15:15;;;;;;;1.10;1.10;;;-0.70;99.90;;;;;;5034435;28;20312;-68
2021/12/21 05:17:42;;;;;;;1.40;1.30;;;-0.60;99.90;;;;;;5034248;28;20215;-68
2021/12/21 05:20:09;;;;;;;1.40;1.17;;;-0.50;99.90;;;;;;5034706;28;20259;-66
2021/12/21 05:22:36;;;;;;;1.13;1.13;;;-0.50;99.90;;;;;;5035117;28;20291;-66
2021/12/21 05:25:05;;;;;;;1.20;1.20;;;-0.60;99.90;;;;;;5034540;28;20275;-67
2021/12/21 05:27:32;;;;;;;1.60;1.50;;;-0.70;99.90;;;;;;5033638;28;20247;-67
2021/12/21 05:29:59;;;;;;;1.00;1.00;;;-0.70;99.90;;;;;;5034540;28;20275;-67
2021/12/21 05:32:26;;;;;;;1.27;1.27;;;-0.90;99.90;;;;;;5043113;28;20209;-68
2021/12/21 05:34:53;;;;;;;1.07;1.07;;;-0.90;99.90;;;;;;5041604;28;20229;-69
2021/12/21 05:37:20;;;;;;;1.10;1.10;;;-0.90;99.90;;;;;;5034123;28;20255;-67
2021/12/21 05:39:56;;;;;;;1.20;1.20;;;-0.80;99.90;;;;;;5033755;28;20262;-66
2021/12/21 05:42:24;;;;;;;1.10;1.10;;;-0.90;99.90;;;;;;5039011;28;20306;-68
2021/12/21 05:44:51;;;;;;;1.00;1.00;;;-1.00;99.90;;;;;;5043976;28;20227;-67
2021/12/21 05:47:18;;;;;;;1.33;1.27;;;-1.00;99.90;;;;;;5040115;28;20651;-67
2021/12/21 05:49:45;;;;;;;1.20;1.20;;;-1.00;99.90;;;;;;5033492;28;20208;-68
2021/12/21 05:52:13;;;;;;;1.30;1.30;;;-1.00;99.90;;;;;;5033444;28;20311;-67
2021/12/21 05:54:40;;;;;;;0.98;0.98;;;-0.90;99.90;;;;;;5032697;28;20256;-68
2021/12/21 05:57:07;;;;;;;1.50;1.43;;;-0.90;99.90;;;;;;5032642;28;20212;-66
2021/12/21 05:59:35;;;;;;;1.35;1.30;;;-1.00;99.90;;;;;;5033008;28;20300;-66
2021/12/21 06:02:02;;;;;;;1.40;1.40;;;-1.00;99.90;;;;;;5032827;28;20236;-67
2021/12/21 06:04:29;;;;;;;1.30;1.20;;;-1.00;99.90;;;;;;5028273;28;20231;-68
2021/12/21 06:06:56;;;;;;;1.13;1.13;;;-1.00;99.90;;;;;;5030654;28;20296;-68
2021/12/21 06:09:23;;;;;;;1.33;1.20;;;-0.80;99.90;;;;;;5032031;28;20283;-63
2021/12/21 06:12:01;;;;;;;1.20;1.20;;;-1.00;99.90;;;;;;5032300;28;20207;-64
2021/12/21 06:22:55;;;;;;;1.50;1.40;;;-1.10;99.90;;;;;;5032697;28;20200;-65
2021/12/21 06:27:50;;;;;;;1.60;1.50;;;-1.00;99.90;;;;;;5066484;28;20215;-62
2021/12/21 06:30:17;;;;;;;1.40;1.30;;;-1.10;99.90;;;;;;5064133;28;20283;-61
2021/12/21 06:32:46;;;;;;;1.47;1.40;;;-1.10;99.90;;;;;;5053026;28;20223;-63
2021/12/21 06:35:14;;;;;;;1.60;1.50;;;-1.10;99.90;;;;;;5063358;28;20208;-61
2021/12/21 06:37:42;;;;;;;1.30;1.30;;;-1.10;99.90;;;;;;5063572;28;20235;-62
2021/12/21 06:40:10;;;;;;;1.83;1.70;;;-1.00;99.90;;;;;;5065515;28;20290;-63
2021/12/21 06:42:38;;;;;;;1.70;1.60;;;-1.00;99.90;;;;;;5076982;28;20207;-61
2021/12/21 06:45:13;;;;;;;1.60;1.50;;;-0.90;99.90;;;;;;5075029;28;20293;-61
2021/12/21 06:53:10;;;;;;;1.60;1.50;;;-1.00;99.90;;;;;;5071513;28;20673;-63
2021/12/21 06:55:37;;;;;;;1.70;1.60;;;-1.00;99.90;;;;;;5072250;28;20226;-60
2021/12/21 06:58:04;;;;;;;1.70;1.60;;;0.30;99.90;;;;;;5071422;28;20582;-62
2021/12/21 07:00:32;;;;;;;1.83;1.73;;;3.50;99.90;;;;;;5071792;28;20199;-62
2021/12/21 07:02:59;;;;;;;1.87;1.77;;;5.30;99.90;;;;;;5072062;28;20257;-62
2021/12/21 07:05:28;;;;;;;1.90;1.80;;;4.30;99.90;;;;;;5063753;28;20602;-62
2021/12/21 07:07:55;;;;;;;1.70;1.60;;;3.10;99.90;;;;;;5060018;28;20284;-61
2021/12/21 07:10:26;;;;;;;1.87;1.73;;;2.10;99.90;;;;;;5070198;28;20207;-60
2021/12/21 07:18:34;;;;;;;2.27;2.17;;;0.50;99.90;;;;;;5007516;28;20197;-62
2021/12/21 07:21:03;;;;;;;2.00;1.90;;;0.10;99.90;;;;;;5057229;28;20203;-62
2021/12/21 07:23:31;;;;;;;2.57;2.40;;;-0.10;99.90;;;;;;5074478;28;20302;-61
2021/12/21 07:25:58;;;;;;;2.80;2.60;;;-0.50;99.90;;;;;;5073592;28;20605;-62
2021/12/21 07:28:25;;;;;;;2.90;2.70;;;-0.90;99.90;;;;;;5074732;28;20403;-62
2021/12/21 07:30:52;;;;;;;2.87;2.73;;;-1.10;99.90;;;;;;5067169;28;20210;-60
2021/12/21 07:33:19;;;;;;;2.60;2.40;;;-1.20;99.90;;;;;;5060901;28;20322;-60
2021/12/21 07:35:47;;;;;;;2.83;2.67;;;-1.30;99.90;;;;;;5064049;28;20278;-62
2021/12/21 07:38:17;;;;;;;2.37;2.20;;;-1.40;99.90;;;;;;5056581;28;20291;-61
2021/12/21 07:40:44;;;;;;;2.37;2.20;;;-1.40;99.90;;;;;;5067964;28;20208;-63
2021/12/21 07:43:11;;;;;;;2.00;1.90;;;-1.40;99.90;;;;;;5065757;28;20223;-61
2021/12/21 07:45:38;;;;;;;2.33;2.20;;;-1.40;99.90;;;;;;5070317;28;20216;-61
2021/12/21 07:48:06;;;;;;;2.10;2.00;;;-1.50;99.90;;;;;;5064595;28;20287;-62
2021/12/21 07:50:33;;;;;;;2.00;1.90;;;-1.50;99.90;;;;;;5074128;28;20207;-61
2021/12/21 07:53:01;;;;;;;2.00;1.90;;;-1.40;99.90;;;;;;5073880;28;20685;-60
2021/12/21 07:55:29;;;;;;;1.83;1.73;;;-1.40;99.90;;;;;;5075053;28;20582;-62
2021/12/21 07:57:57;;;;;;;2.30;2.20;;;-1.50;99.90;;;;;;5074619;28;20235;-62
2021/12/21 08:00:24;;;;;;;2.75;2.55;;;-1.40;99.90;;;;;;5071685;28;20289;-62
2021/12/21 08:02:51;;;;;;;2.60;2.40;;;-1.50;99.90;;;;;;5064588;28;20287;-62
2021/12/21 08:05:18;;;;;;;2.33;2.23;;;-1.50;99.90;;;;;;5072729;28;20246;-62
2021/12/21 08:07:51;;;;;;;2.25;2.13;;;-1.30;99.90;;;;;;5063556;28;20696;-62
2021/12/21 08:10:25;;;;;;;2.27;2.17;;;-1.20;99.90;;;;;;5072301;28;20199;-63
2021/12/21 08:12:54;;;;;;;1.80;1.70;;;-1.10;99.90;;;;;;5055737;28;20211;-62
2021/12/21 08:15:22;;;;;;;2.33;2.23;;;-1.10;99.90;;;;;;5063765;28;20223;-62
2021/12/21 08:17:49;;;;;;;2.17;1.97;;;-1.00;99.90;;;;;;5063788;28;20287;-61
2021/12/21 08:20:16;;;;;;;2.37;2.20;;;-0.80;99.90;;;;;;5068576;28;20207;-61
2021/12/21 08:22:43;;;;;;;2.10;2.00;;;-0.70;99.90;;;;;;5062651;28;20210;-61
2021/12/21 08:25:11;;;;;;;2.40;2.20;;;-0.60;99.90;;;;;;5070741;28;20312;-61
2021/12/21 08:27:37;;;;;;;2.27;2.17;;;-0.60;99.90;;;;;;5065028;28;20223;-62
2021/12/21 08:30:07;;;;;;;2.40;2.30;;;-0.50;99.90;;;;;;5070055;28;20227;-61
2021/12/21 08:32:34;;;;;;;2.53;2.33;;;-0.40;99.90;;;;;;5053807;28;20204;-61
2021/12/21 08:35:01;;;;;;;2.43;2.27;;;-0.40;99.90;;;;;;5053465;28;20291;-61
2021/12/21 08:37:28;;;;;;;2.30;2.20;;;-0.40;99.90;;;;;;5052990;28;20226;-60
2021/12/21 08:39:56;;;;;;;2.57;2.37;;;-0.30;99.90;;;;;;5053176;28;20203;-61
2021/12/21 08:42:24;;;;;;;2.10;2.00;;;-0.20;99.90;;;;;;5058912;28;20203;-61
2021/12/21 08:44:51;;;;;;;2.40;2.30;;;-0.10;99.90;;;;;;5065574;28;20223;-62
2021/12/21 08:47:20;;;;;;;2.40;2.30;;;0.00;99.90;;;;;;5073498;28;20987;-61
2021/12/21 08:49:49;;;;;;;2.70;2.50;;;0.10;99.90;;;;;;5072860;28;20307;-61
2021/12/21 08:52:16;;;;;;;2.87;2.67;;;0.20;99.90;;;;;;5073515;28;20207;-61
2021/12/21 08:54:44;;;;;;;2.60;2.50;;;0.20;99.90;;;;;;5074084;28;20207;-61
2021/12/21 08:57:11;;;;;;;2.70;2.50;;;0.20;99.90;;;;;;5074121;28;20226;-61
2021/12/21 08:59:38;;;;;;;2.43;2.27;;;0.30;99.90;;;;;;5073566;28;20231;-61
2021/12/21 09:02:05;;;;;;;2.07;1.97;;;0.40;99.90;;;;;;5074204;28;20295;-62
2021/12/21 09:04:33;;;;;;;2.30;2.10;;;0.50;99.90;;;;;;5073726;28;20683;-61
2021/12/21 09:07:02;;;;;;;2.17;2.07;;;0.70;99.90;;;;;;5073499;28;20227;-63
2021/12/21 09:09:30;;;;;;;2.10;2.00;;;0.70;99.90;;;;;;5076281;28;20211;-63
2021/12/21 09:11:57;;;;;;;2.20;2.10;;;0.90;99.90;;;;;;5076948;28;20225;-62
2021/12/21 09:14:24;;;;;;;2.67;2.47;;;1.00;99.90;;;;;;5078313;28;20263;-62
2021/12/21 09:16:51;;;;;;;2.50;2.30;;;1.10;99.90;;;;;;5078762;28;20223;-62
2021/12/21 09:19:18;;;;;;;2.30;2.20;;;1.20;99.90;;;;;;5078011;28;20239;-62
2021/12/21 09:21:46;;;;;;;2.50;2.40;;;1.20;99.90;;;;;;5078142;28;20719;-62
2021/12/21 09:24:14;;;;;;;2.90;2.70;;;1.30;99.90;;;;;;5077410;28;20283;-62
2021/12/21 09:26:41;;;;;;;2.47;2.37;;;1.40;99.90;;;;;;5074393;28;20231;-63
2021/12/21 09:29:08;;;;;;;2.47;2.37;;;1.50;99.90;;;;;;5073159;28;20214;-63
2021/12/21 09:31:35;;;;;;;2.27;2.17;;;1.60;99.90;;;;;;5072814;28;20306;-61
2021/12/21 09:34:02;;;;;;;2.40;2.20;;;1.70;99.90;;;;;;5072766;28;20721;-63
2021/12/21 09:36:29;;;;;;;2.17;2.07;;;1.70;99.90;;;;;;5072993;28;20234;-64
2021/12/21 09:38:59;;;;;;;1.97;1.87;;;1.80;99.90;;;;;;5072841;28;20232;-62
2021/12/21 09:41:25;;;;;;;2.10;2.00;;;2.00;99.90;;;;;;5072005;28;20211;-62
2021/12/21 09:43:52;;;;;;;2.00;1.80;;;2.10;99.90;;;;;;5072105;28;20318;-63
2021/12/21 09:46:20;;;;;;;1.90;1.80;;;2.20;99.90;;;;;;5072266;28;20306;-62
2021/12/21 09:48:47;;;;;;;2.10;2.00;;;2.30;99.90;;;;;;5072391;28;20238;-64
2021/12/21 09:51:15;;;;;;;1.90;1.80;;;2.50;99.90;;;;;;5072862;28;20235;-63
2021/12/21 09:53:44;;;;;;;2.07;1.97;;;2.60;99.90;;;;;;5072668;28;20239;-61
2021/12/21 09:56:14;;;;;;;2.07;1.97;;;2.70;99.90;;;;;;5072187;28;20223;-62
2021/12/21 09:58:41;;;;;;;2.13;1.93;;;2.90;99.90;;;;;;5072315;28;20203;-62
2021/12/21 10:01:08;;;;;;;2.40;2.20;;;2.90;99.90;;;;;;5072103;28;20289;-61
2021/12/21 10:03:35;;;;;;;2.20;2.10;;;3.00;99.90;;;;;;5072496;28;20211;-61
2021/12/21 10:06:05;;;;;;;2.00;1.90;;;2.90;99.90;;;;;;5072965;28;20306;-61
2021/12/21 10:08:32;;;;;;;2.10;2.00;;;2.90;99.90;;;;;;5072660;28;20298;-62
2021/12/21 10:11:00;;;;;;;2.03;1.93;;;2.90;99.90;;;;;;5071895;28;20291;-62
2021/12/21 10:13:29;;;;;;;2.60;2.43;;;2.90;99.90;;;;;;5072263;28;20229;-62
2021/12/21 10:15:59;;;;;;;3.00;2.80;;;2.80;99.90;;;;;;5072466;28;20247;-61
2021/12/21 10:18:28;;;;;;;3.00;2.80;;;2.80;99.90;;;;;;5072390;28;20261;-61
2021/12/21 10:20:57;;;;;;;2.67;2.57;;;2.70;99.90;;;;;;5071901;28;20241;-62
2021/12/21 10:23:25;;;;;;;2.50;2.40;;;2.60;99.90;;;;;;5070949;28;20807;-63
2021/12/21 10:25:56;;;;;;;2.57;2.37;;;2.70;99.90;;;;;;5071533;28;20772;-61
2021/12/21 10:28:30;;;;;;;2.30;2.20;;;2.60;99.90;;;;;;5071865;28;20193;-62
2021/12/21 10:30:58;;;;;;;2.20;2.10;;;2.50;99.90;;;;;;5071795;28;20183;-63
2021/12/21 10:33:26;;;;;;;2.10;2.00;;;2.50;99.90;;;;;;5071531;28;20582;-62
2021/12/21 10:35:54;;;;;;;2.30;2.20;;;2.40;99.90;;;;;;5071265;28;20313;-62
2021/12/21 10:38:26;;;;;;;2.00;1.90;;;2.40;99.90;;;;;;5072057;28;20207;-62
2021/12/21 10:40:53;;;;;;;2.10;2.00;;;2.30;99.90;;;;;;5071558;28;20209;-62
2021/12/21 10:43:20;;;;;;;2.10;2.00;;;2.20;99.90;;;;;;5071487;28;20271;-62
2021/12/21 10:45:48;;;;;;;2.17;2.07;;;2.20;99.90;;;;;;5071448;28;20234;-60
2021/12/21 10:48:19;;;;;;;2.83;2.63;;;2.30;99.90;;;;;;5071459;28;20257;-62
2021/12/21 10:50:48;;;;;;;2.50;2.40;;;2.20;99.90;;;;;;5062965;28;20254;-62
2021/12/21 10:53:18;;;;;;;2.73;2.53;;;2.30;99.90;;;;;;5053278;28;20686;-62
2021/12/21 10:55:46;;;;;;;2.70;2.50;;;2.20;99.90;;;;;;5057657;28;20298;-64
2021/12/21 10:58:15;;;;;;;3.10;2.90;;;2.10;99.90;;;;;;5056994;28;20238;-63
2021/12/21 11:00:46;;;;;;;3.03;2.90;;;2.00;99.90;;;;;;5056983;28;20208;-64
2021/12/21 11:03:18;;;;;;;3.77;3.57;;;1.80;99.90;;;;;;5053827;28;20203;-61
2021/12/21 11:05:46;;;;;;;3.73;3.53;;;1.90;99.90;;;;;;5057255;28;20238;-63
2021/12/21 11:08:24;;;;;;;4.40;4.20;;;1.70;99.90;;;;;;5056191;28;20289;-63
2021/12/21 11:10:56;;;;;;;4.70;4.30;;;1.40;99.90;;;;;;5056384;28;20206;-62
2021/12/21 11:13:23;;;;;;;4.10;3.90;;;1.20;99.90;;;;;;5056653;28;20204;-62
2021/12/21 11:15:53;;;;;;;6.17;4.87;;;1.00;99.90;;;;;;5057961;28;20250;-61
2021/12/21 11:18:23;;;;;;;4.50;4.10;;;0.90;99.90;;;;;;5055017;28;20207;-63
2021/12/21 11:20:52;;;;;;;5.17;4.77;;;0.80;99.90;;;;;;5054012;28;20286;-62
2021/12/21 11:23:21;;;;;;;7.53;5.00;;;0.80;99.90;;;;;;5054813;28;20235;-64
2021/12/21 11:25:49;;;;;;;7.17;5.93;;;0.80;99.90;;;;;;5053805;28;20255;-62
2021/12/21 11:28:18;;;;;;;3.87;3.60;;;0.70;99.90;;;;;;5056186;28;20203;-61
2021/12/21 11:30:45;;;;;;;3.57;3.27;;;0.70;99.90;;;;;;5057360;28;20683;-63
2021/12/21 11:33:17;;;;;;;3.80;3.50;;;0.80;99.90;;;;;;5055735;28;20737;-63
2021/12/21 11:38:31;;;;;;;3.20;3.00;;;0.90;99.90;;;;;;5053695;28;20210;-61
2021/12/21 11:40:58;;;;;;;3.30;3.03;;;0.80;99.90;;;;;;5057181;28;20298;-62
2021/12/21 11:43:31;;;;;;;3.43;3.23;;;0.90;99.90;;;;;;5054690;28;20208;-62
2021/12/21 11:46:00;;;;;;;4.33;3.93;;;1.00;99.90;;;;;;5059422;28;20302;-62
2021/12/21 11:48:38;;;;;;;4.30;3.90;;;1.00;99.90;;;;;;5057073;28;20219;-61
2021/12/21 11:51:10;;;;;;;3.40;3.20;;;0.90;99.90;;;;;;5055795;28;20560;-62
2021/12/21 11:53:37;;;;;;;2.90;2.70;;;1.00;99.90;;;;;;5057377;28;20686;-61
2021/12/21 11:56:06;;;;;;;3.70;3.47;;;1.00;99.90;;;;;;5058903;28;20270;-64
2021/12/21 11:58:39;;;;;;;3.60;3.40;;;1.00;99.90;;;;;;5057350;28;20239;-62
2021/12/21 12:01:13;;;;;;;3.13;2.97;;;0.90;99.90;;;;;;5053562;28;20227;-63
2021/12/21 12:03:46;;;;;;;3.17;3.00;;;0.80;99.90;;;;;;5055673;28;20210;-62
2021/12/21 12:06:16;;;;;;;3.33;3.13;;;0.60;99.90;;;;;;5055740;28;20258;-64
2021/12/21 12:08:46;;;;;;;2.90;2.70;;;0.60;99.90;;;;;;5056713;28;20239;-62
2021/12/21 12:11:23;;;;;;;2.90;2.70;;;0.60;99.90;;;;;;5054522;28;20282;-62
2021/12/21 12:13:50;;;;;;;2.50;2.40;;;0.70;99.90;;;;;;5056288;28;20291;-63
2021/12/21 12:16:18;;;;;;;2.30;2.20;;;0.80;99.90;;;;;;5057710;28;20252;-62
2021/12/21 12:18:48;;;;;;;3.00;2.63;;;0.90;99.90;;;;;;5058335;28;20204;-62
2021/12/21 12:21:19;;;;;;;3.27;3.07;;;0.90;99.90;;;;;;5056322;28;20286;-62
2021/12/21 12:23:51;;;;;;;3.00;2.80;;;0.90;99.90;;;;;;5056939;28;20196;-63
2021/12/21 12:26:25;;;;;;;2.40;2.30;;;1.00;99.90;;;;;;5053504;28;20678;-62
2021/12/21 12:28:53;;;;;;;2.43;2.33;;;1.10;99.90;;;;;;5065302;22;20247;-63
2021/12/21 12:31:31;;;;;;;2.53;2.40;;;1.20;99.90;;;;;;5051287;28;20283;-66
2021/12/21 12:33:58;;;;;;;2.53;2.33;;;1.20;99.90;;;;;;5050378;28;20220;-65
2021/12/21 12:36:49;;;;;;;2.50;2.40;;;1.30;99.90;;;;;;5050471;28;20283;-65
2021/12/21 12:39:29;;;;;;;2.87;2.67;;;1.30;99.90;;;;;;5036693;28;20235;-64
2021/12/21 12:42:03;;;;;;;2.63;2.47;;;1.30;99.90;;;;;;5032599;28;20263;-64
2021/12/21 12:44:30;;;;;;;2.70;2.50;;;1.40;99.90;;;;;;5032719;28;20203;-65
2021/12/21 12:47:02;;;;;;;3.03;2.83;;;1.50;99.90;;;;;;5033798;28;20331;-64
2021/12/21 12:49:31;;;;;;;3.57;3.23;;;1.50;99.90;;;;;;5034910;28;20220;-65
2021/12/21 12:52:13;;;;;;;3.10;2.90;;;1.60;99.90;;;;;;5034628;28;20288;-65
2021/12/21 12:54:50;;;;;;;3.63;3.37;;;1.60;99.90;;;;;;5033414;28;20200;-64
2021/12/21 12:57:49;;;;;;;3.90;3.63;;;1.60;99.90;;;;;;5047301;28;20228;-64
2021/12/21 13:00:19;;;;;;;3.60;3.40;;;1.70;99.90;;;;;;5043107;28;20264;-63
2021/12/21 13:02:55;;;;;;;3.53;3.33;;;1.70;99.90;;;;;;5054442;28;20718;-65
2021/12/21 13:05:26;;;;;;;3.37;3.17;;;1.80;99.90;;;;;;5047304;28;20270;-64
2021/12/21 13:07:54;;;;;;;3.47;3.27;;;1.90;99.90;;;;;;5045596;28;20228;-63
2021/12/21 13:10:23;;;;;;;3.30;3.10;;;2.00;99.90;;;;;;5047139;28;20620;-64
2021/12/21 13:12:57;;;;;;;2.90;2.70;;;2.00;99.90;;;;;;5037144;28;20746;-63
2021/12/21 13:15:34;;;;;;;3.00;2.80;;;2.10;99.90;;;;;;5037442;28;20236;-63
2021/12/21 13:18:02;;;;;;;2.70;2.50;;;2.20;99.90;;;;;;5040682;28;20267;-63
2021/12/21 13:20:29;;;;;;;3.00;2.80;;;2.30;99.90;;;;;;5037814;28;20228;-63
2021/12/21 13:23:09;;;;;;;3.17;2.97;;;2.40;99.90;;;;;;5043310;28;20228;-64
2021/12/21 13:25:36;;;;;;;2.80;2.60;;;2.40;99.90;;;;;;5046004;28;20244;-64
2021/12/21 13:28:11;;;;;;;2.70;2.60;;;2.40;99.90;;;;;;5043004;28;20310;-63
2021/12/21 13:30:45;;;;;;;2.37;2.27;;;2.50;99.90;;;;;;5058594;28;20231;-64
2021/12/21 13:33:17;;;;;;;2.70;2.50;;;2.60;99.90;;;;;;5054005;28;20228;-65
2021/12/21 13:35:44;;;;;;;2.33;2.23;;;2.60;99.90;;;;;;5038443;28;20251;-64
2021/12/21 13:38:16;;;;;;;2.43;2.30;;;2.70;99.90;;;;;;5043478;28;20244;-63
2021/12/21 13:40:46;;;;;;;2.80;2.60;;;2.80;99.90;;;;;;5038468;28;20239;-64
2021/12/21 13:43:14;;;;;;;2.60;2.50;;;2.80;99.90;;;;;;5047621;28;20197;-63